Relax — ILWX2 — position and weather

sailwx.info

Track history (hours):
 
Tides and Currents Weather Stations Pressure Air Temp Water Temp Dewpoint Dewpoint Depression Visibility Wind Speed Wind Dir Waves Ship Positions

Relax

Last reported at 2015-Apr-27 15:28 UTC. Time now 2015-Apr-27 20:48 UTC.
Position N 40°36' E 014°32'.

MMSI: 247277800.

Date/timePositionNaut miles runAvg speedWind from/ knotsBaromVisibWave heightAir tempDewpointWater temp
2015-Apr-27 15:28N 40°36' E 014°32'1313.8
2015-Apr-27 14:33N 40°34' E 014°15'1 0.7
2015-Apr-27 13:19N 40°34' E 014°14'0 0.0
2015-Apr-27 12:29N 40°34' E 014°14'0 0.0
2015-Apr-27 11:20N 40°34' E 014°14'0 0.0
2015-Apr-27 10:23N 40°34' E 014°14'0 0.0
2015-Apr-27 09:20N 40°34' E 014°14'5 5.6
2015-Apr-27 08:30N 40°34' E 014°20'7 0.4
2015-Apr-26 15:05N 40°37' E 014°29'1018.2
2015-Apr-26 14:33N 40°34' E 014°17'2 1.9
2015-Apr-26 13:30N 40°34' E 014°14'0 0.0
2015-Apr-26 12:15N 40°34' E 014°14'0 0.0
2015-Apr-26 11:33N 40°34' E 014°14'0 0.0
2015-Apr-26 10:33N 40°34' E 014°14'0 0.0
2015-Apr-26 09:33N 40°34' E 014°14'5 4.6
2015-Apr-26 08:32N 40°34' E 014°20'9 0.5
2015-Apr-25 15:33N 40°36' E 014°32'1212.2
2015-Apr-25 14:33N 40°34' E 014°16'1 1.1
2015-Apr-25 13:30N 40°34' E 014°14'0 0.0
2015-Apr-25 12:33N 40°34' E 014°14'0 0.0
2015-Apr-25 11:30N 40°34' E 014°14'0 0.0
2015-Apr-25 10:30N 40°34' E 014°14'0 0.0
2015-Apr-25 09:33N 40°34' E 014°14'6 6.5
2015-Apr-25 08:33N 40°34' E 014°23'7 0.4
2015-Apr-24 15:32N 40°36' E 014°32'1313.4
2015-Apr-24 14:33N 40°33' E 014°15'1 0.5
2015-Apr-24 13:31N 40°34' E 014°14'0 0.0
2015-Apr-24 12:31N 40°34' E 014°14'0 0.0
2015-Apr-24 11:31N 40°34' E 014°14'0 0.0
2015-Apr-24 10:31N 40°34' E 014°14'0 0.0
2015-Apr-24 09:31N 40°34' E 014°14'5 4.7
2015-Apr-24 08:32N 40°34' E 014°20'8 0.5
2015-Apr-23 15:12N 40°37' E 014°29'1117.3
2015-Apr-23 14:33N 40°34' E 014°15'1 0.9
2015-Apr-23 13:30N 40°34' E 014°14'0 0.0
2015-Apr-23 12:29N 40°34' E 014°14'0 0.0
2015-Apr-23 11:29N 40°34' E 014°14'0 0.0
2015-Apr-23 10:31N 40°34' E 014°14'0 0.0
2015-Apr-23 09:28N 40°34' E 014°14'3 3.6
2015-Apr-23 08:33N 40°34' E 014°18'10 0.6
2015-Apr-22 15:26N 40°36' E 014°31'1112.4
2015-Apr-22 14:33N 40°34' E 014°17'2 2.1
2015-Apr-22 13:31N 40°34' E 014°14'0 0.0
2015-Apr-22 12:25N 40°34' E 014°14'0 0.0
2015-Apr-22 11:31N 40°34' E 014°14'0 0.0
2015-Apr-22 10:31N 40°34' E 014°14'0 0.0
2015-Apr-22 09:31N 40°34' E 014°14'5 5.0
2015-Apr-22 08:34N 40°34' E 014°20'6 0.4
2015-Apr-21 15:06N 40°36' E 014°28'1017.5
2015-Apr-21 14:32N 40°34' E 014°15'1 0.3
2015-Apr-21 12:13N 40°33' E 014°16'0 0.0
2015-Apr-21 11:31N 40°33' E 014°16'0 0.0
2015-Apr-21 10:31N 40°33' E 014°16'0 0.0
2015-Apr-21 09:31N 40°33' E 014°16'4 3.8
2015-Apr-21 08:33N 40°34' E 014°20'9 0.5
2015-Apr-20 15:31N 40°36' E 014°32'1212.6
2015-Apr-20 14:33N 40°34' E 014°16'2 1.5
2015-Apr-20 13:31N 40°33' E 014°15'0 0.0
2015-Apr-20 12:31N 40°33' E 014°15'0 0.0
2015-Apr-20 11:25N 40°33' E 014°15'0 0.0
2015-Apr-20 10:19N 40°33' E 014°15'0 0.0
2015-Apr-20 09:31N 40°33' E 014°15'5 5.1
2015-Apr-20 08:33N 40°34' E 014°21'6 0.2
2015-Apr-18 15:08N 40°37' E 014°28'1017.7
2015-Apr-18 14:33N 40°34' E 014°15'1 0.8
2015-Apr-18 13:17N 40°34' E 014°14'0 0.0
2015-Apr-18 12:23N 40°34' E 014°14'0 0.0
2015-Apr-18 11:29N 40°34' E 014°14'0 0.0
2015-Apr-18 10:29N 40°34' E 014°14'0 0.0
2015-Apr-18 09:29N 40°34' E 014°14'5 5.9
2015-Apr-18 08:33N 40°34' E 014°21'13 0.8
2015-Apr-17 16:10N 40°38' E 014°38'  
Track history (hours):
 
Tides and Currents Weather Stations Pressure Air Temp Water Temp Dewpoint Dewpoint Depression Visibility Wind Speed Wind Dir Waves Ship Positions

Relax

Last reported at 2015-Apr-27 15:28 UTC. Time now 2015-Apr-27 20:48 UTC.
Position N 40°36' E 014°32'.

MMSI: 247277800.

Date/timePositionNaut miles runAvg speedWind from/ knotsBaromVisibWave heightAir tempDewpointWater temp
2015-Apr-27 15:28N 40°36' E 014°32'1313.8
2015-Apr-27 14:33N 40°34' E 014°15'1 0.7
2015-Apr-27 13:19N 40°34' E 014°14'0 0.0
2015-Apr-27 12:29N 40°34' E 014°14'0 0.0
2015-Apr-27 11:20N 40°34' E 014°14'0 0.0
2015-Apr-27 10:23N 40°34' E 014°14'0 0.0
2015-Apr-27 09:20N 40°34' E 014°14'5 5.6
2015-Apr-27 08:30N 40°34' E 014°20'7 0.4
2015-Apr-26 15:05N 40°37' E 014°29'1018.2
2015-Apr-26 14:33N 40°34' E 014°17'2 1.9
2015-Apr-26 13:30N 40°34' E 014°14'0 0.0
2015-Apr-26 12:15N 40°34' E 014°14'0 0.0
2015-Apr-26 11:33N 40°34' E 014°14'0 0.0
2015-Apr-26 10:33N 40°34' E 014°14'0 0.0
2015-Apr-26 09:33N 40°34' E 014°14'5 4.6
2015-Apr-26 08:32N 40°34' E 014°20'9 0.5
2015-Apr-25 15:33N 40°36' E 014°32'1212.2
2015-Apr-25 14:33N 40°34' E 014°16'1 1.1
2015-Apr-25 13:30N 40°34' E 014°14'0 0.0
2015-Apr-25 12:33N 40°34' E 014°14'0 0.0
2015-Apr-25 11:30N 40°34' E 014°14'0 0.0
2015-Apr-25 10:30N 40°34' E 014°14'0 0.0
2015-Apr-25 09:33N 40°34' E 014°14'6 6.5
2015-Apr-25 08:33N 40°34' E 014°23'7 0.4
2015-Apr-24 15:32N 40°36' E 014°32'1313.4
2015-Apr-24 14:33N 40°33' E 014°15'1 0.5
2015-Apr-24 13:31N 40°34' E 014°14'0 0.0
2015-Apr-24 12:31N 40°34' E 014°14'0 0.0
2015-Apr-24 11:31N 40°34' E 014°14'0 0.0
2015-Apr-24 10:31N 40°34' E 014°14'0 0.0
2015-Apr-24 09:31N 40°34' E 014°14'5 4.7
2015-Apr-24 08:32N 40°34' E 014°20'8 0.5
2015-Apr-23 15:12N 40°37' E 014°29'1117.3
2015-Apr-23 14:33N 40°34' E 014°15'1 0.9
2015-Apr-23 13:30N 40°34' E 014°14'0 0.0
2015-Apr-23 12:29N 40°34' E 014°14'0 0.0
2015-Apr-23 11:29N 40°34' E 014°14'0 0.0
2015-Apr-23 10:31N 40°34' E 014°14'0 0.0
2015-Apr-23 09:28N 40°34' E 014°14'3 3.6
2015-Apr-23 08:33N 40°34' E 014°18'10 0.6
2015-Apr-22 15:26N 40°36' E 014°31'1112.4
2015-Apr-22 14:33N 40°34' E 014°17'2 2.1
2015-Apr-22 13:31N 40°34' E 014°14'0 0.0
2015-Apr-22 12:25N 40°34' E 014°14'0 0.0
2015-Apr-22 11:31N 40°34' E 014°14'0 0.0
2015-Apr-22 10:31N 40°34' E 014°14'0 0.0
2015-Apr-22 09:31N 40°34' E 014°14'5 5.0
2015-Apr-22 08:34N 40°34' E 014°20'6 0.4
2015-Apr-21 15:06N 40°36' E 014°28'1017.5
2015-Apr-21 14:32N 40°34' E 014°15'1 0.3
2015-Apr-21 12:13N 40°33' E 014°16'0 0.0
2015-Apr-21 11:31N 40°33' E 014°16'0 0.0
2015-Apr-21 10:31N 40°33' E 014°16'0 0.0
2015-Apr-21 09:31N 40°33' E 014°16'4 3.8
2015-Apr-21 08:33N 40°34' E 014°20'9 0.5
2015-Apr-20 15:31N 40°36' E 014°32'1212.6
2015-Apr-20 14:33N 40°34' E 014°16'2 1.5
2015-Apr-20 13:31N 40°33' E 014°15'0 0.0
2015-Apr-20 12:31N 40°33' E 014°15'0 0.0
2015-Apr-20 11:25N 40°33' E 014°15'0 0.0
2015-Apr-20 10:19N 40°33' E 014°15'0 0.0
2015-Apr-20 09:31N 40°33' E 014°15'5 5.1
2015-Apr-20 08:33N 40°34' E 014°21'6 0.2
2015-Apr-18 15:08N 40°37' E 014°28'1017.7
2015-Apr-18 14:33N 40°34' E 014°15'1 0.8
2015-Apr-18 13:17N 40°34' E 014°14'0 0.0
2015-Apr-18 12:23N 40°34' E 014°14'0 0.0
2015-Apr-18 11:29N 40°34' E 014°14'0 0.0
2015-Apr-18 10:29N 40°34' E 014°14'0 0.0
2015-Apr-18 09:29N 40°34' E 014°14'5 5.9
2015-Apr-18 08:33N 40°34' E 014°21'13 0.8
2015-Apr-17 16:10N 40°38' E 014°38'  

Dump ship's entire track history